Time;durP1;ratioP1;P1;durP2;ratioP2;P2;SDS_P1;SDS_P2;PMS_P1;PMS_P2;Temp;Humidity;BMP_temperature;BMP_pressure;BME280_temperature;BME280_humidity;BME280_pressure;Samples;Min_cycle;Max_cycle;Signal;HPM_P1;HPM_P2
2023/09/21 00:01:38;;;;;;;;;4.00;4.00;;;;;21.77;59.73;99674.47;5056931;28;45834;-38
2023/09/21 00:04:04;;;;;;;;;4.20;3.60;;;;;21.74;59.73;99667.63;5056493;28;45376;-38
2023/09/21 00:06:30;;;;;;;;;2.50;2.50;;;;;21.71;60.15;99670.03;5056513;28;46684;-42
2023/09/21 00:08:55;;;;;;;;;5.00;4.00;;;;;21.70;59.98;99671.94;5056356;28;45597;-42
2023/09/21 00:11:20;;;;;;;;;5.00;4.00;;;;;21.72;60.35;99660.84;5056698;28;45234;-39
2023/09/21 00:13:46;;;;;;;;;5.00;5.00;;;;;21.70;60.00;99652.97;5056654;28;45480;-40
2023/09/21 00:16:12;;;;;;;;;4.75;4.75;;;;;21.67;59.47;99662.41;5056513;28;45569;-40
2023/09/21 00:18:41;;;;;;;;;4.00;4.00;;;;;21.67;60.23;99656.16;5056243;28;45232;-38
2023/09/21 00:21:06;;;;;;;;;4.00;4.00;;;;;21.65;59.70;99655.59;5056583;28;45391;-40
2023/09/21 00:23:32;;;;;;;;;4.00;4.00;;;;;21.64;60.46;99660.19;5056711;28;45418;-40
2023/09/21 00:26:00;;;;;;;;;4.75;4.75;;;;;21.62;60.05;99658.81;5056070;28;45434;-42
2023/09/21 00:28:27;;;;;;;;;4.00;4.00;;;;;21.60;60.26;99660.91;5056332;28;45427;-42
2023/09/21 00:30:57;;;;;;;;;4.00;4.00;;;;;21.55;60.23;99631.88;5056421;28;45293;-42
2023/09/21 00:33:27;;;;;;;;;5.60;4.60;;;;;21.61;60.33;99636.31;5056366;28;45825;-48
2023/09/21 00:35:53;;;;;;;;;3.80;2.60;;;;;21.62;59.67;99643.38;5055791;28;47136;-42
2023/09/21 00:38:19;;;;;;;;;3.00;3.00;;;;;21.56;60.71;99636.22;5055550;28;45719;-41
2023/09/21 00:40:45;;;;;;;;;5.40;3.80;;;;;21.56;60.61;99638.94;5056176;28;45300;-40
2023/09/21 00:43:20;;;;;;;;;3.00;3.00;;;;;21.51;60.95;99629.91;5056205;28;45515;-41
2023/09/21 00:45:51;;;;;;;;;2.60;2.00;;;;;21.52;60.60;99615.31;5055359;28;46273;-39
2023/09/21 00:48:23;;;;;;;;;3.40;2.80;;;;;21.48;60.94;99630.41;5055750;28;45637;-40
2023/09/21 00:50:51;;;;;;;;;2.40;1.60;;;;;21.48;60.77;99646.63;5055929;28;45439;-43
2023/09/21 00:53:17;;;;;;;;;2.60;2.00;;;;;21.41;61.27;99641.41;5055851;28;45494;-44
2023/09/21 00:55:50;;;;;;;;;5.40;2.20;;;;;21.42;60.94;99649.25;5054749;28;46872;-44
2023/09/21 00:58:16;;;;;;;;;4.40;3.00;;;;;21.42;61.30;99637.63;5055634;28;45350;-42
2023/09/21 01:00:41;;;;;;;;;4.20;3.80;;;;;21.42;61.59;99635.75;5055837;28;45308;-48
2023/09/21 01:03:11;;;;;;;;;3.50;2.75;;;;;21.38;62.01;99625.66;5056103;28;45324;-38
2023/09/21 01:05:39;;;;;;;;;4.00;4.00;;;;;21.34;61.67;99613.69;5055446;28;45446;-38
2023/09/21 01:08:09;;;;;;;;;3.20;2.00;;;;;21.34;62.20;99619.91;5055342;28;45326;-41
2023/09/21 01:10:36;;;;;;;;;3.80;3.80;;;;;21.34;63.14;99619.91;5055417;28;45483;-43
2023/09/21 01:13:03;;;;;;;;;3.20;2.80;;;;;21.23;63.91;99615.34;5055540;28;45414;-41
2023/09/21 01:15:29;;;;;;;;;3.00;3.00;;;;;21.29;63.35;99630.63;5055331;28;46201;-41
2023/09/21 01:17:54;;;;;;;;;1.25;0.25;;;;;21.30;63.24;99631.44;5054831;28;45316;-40
2023/09/21 01:20:23;;;;;;;;;4.00;3.00;;;;;21.25;63.62;99625.94;5055364;28;45310;-40
2023/09/21 01:23:11;;;;;;;;;3.25;3.00;;;;;21.19;63.62;99635.81;5055797;28;45414;-38
2023/09/21 01:25:42;;;;;;;;;3.20;3.00;;;;;21.16;64.09;99637.16;5055693;28;46468;-41
2023/09/21 01:28:09;;;;;;;;;3.00;3.00;;;;;21.13;64.81;99623.28;5055661;28;45355;-41
2023/09/21 01:30:39;;;;;;;;;2.80;2.40;;;;;21.12;65.21;99638.69;5055629;28;45388;-45
2023/09/21 01:33:08;;;;;;;;;3.50;3.50;;;;;21.08;64.67;99615.09;5055886;28;45379;-43
2023/09/21 01:35:34;;;;;;;;;3.00;2.20;;;;;21.04;65.59;99613.94;5055269;28;47177;-44
2023/09/21 01:38:00;;;;;;;;;4.00;4.00;;;;;21.08;65.78;99613.22;5055508;28;45355;-45
2023/09/21 01:40:25;;;;;;;;;4.75;2.50;;;;;21.04;64.08;99617.47;5055534;28;45397;-42
2023/09/21 01:42:50;;;;;;;;;2.00;2.00;;;;;20.99;64.08;99617.38;5055922;28;45501;-39
2023/09/21 01:45:16;;;;;;;;;4.00;2.25;;;;;20.90;66.49;99605.31;5055255;28;45383;-43
2023/09/21 01:47:43;;;;;;;;;2.75;2.50;;;;;20.73;67.34;99585.50;5055623;28;45395;-41
2023/09/21 01:50:15;;;;;;;;;3.60;2.60;;;;;20.83;67.08;99608.16;5055351;28;45536;-43
2023/09/21 01:52:41;;;;;;;;;3.00;3.00;;;;;20.81;67.78;99610.25;5055402;28;45489;-45
2023/09/21 01:55:10;;;;;;;;;4.00;4.00;;;;;20.79;67.87;99606.16;5056029;28;46276;-40
2023/09/21 01:57:36;;;;;;;;;6.60;3.40;;;;;20.73;68.70;99604.41;5058743;28;45189;-42
2023/09/21 02:00:11;;;;;;;;;6.60;4.60;;;;;20.63;68.41;99597.75;5058729;28;45322;-40
2023/09/21 02:02:37;;;;;;;;;7.00;4.50;;;;;20.60;68.80;99600.94;5059049;28;45295;-44
2023/09/21 02:05:03;;;;;;;;;3.50;3.25;;;;;20.50;69.71;99581.00;5058319;28;46589;-41
2023/09/21 02:07:29;;;;;;;;;3.00;3.00;;;;;20.47;70.60;99584.16;5058505;28;45322;-44
2023/09/21 02:09:55;;;;;;;;;4.50;3.25;;;;;20.42;71.21;99588.41;5058789;28;45385;-40
2023/09/21 02:12:23;;;;;;;;;4.50;4.50;;;;;20.36;71.15;99573.16;5058466;28;45429;-41
2023/09/21 02:14:48;;;;;;;;;5.00;3.60;;;;;20.27;72.35;99553.00;5058477;28;45442;-41
2023/09/21 02:17:14;;;;;;;;;4.25;3.75;;;;;20.26;72.53;99562.13;5058342;28;45797;-42
2023/09/21 02:19:39;;;;;;;;;2.50;2.50;;;;;20.21;71.53;99562.03;5057904;28;45570;-40
2023/09/21 02:22:04;;;;;;;;;3.75;3.00;;;;;20.18;72.13;99562.50;5058802;28;45315;-46
2023/09/21 02:24:30;;;;;;;;;5.00;4.75;;;;;20.13;73.27;99557.81;5057317;28;46147;-42
2023/09/21 02:26:56;;;;;;;;;3.00;1.25;;;;;20.04;71.74;99556.56;5058307;28;45459;-43
2023/09/21 02:29:22;;;;;;;;;4.00;4.00;;;;;19.97;73.84;99555.03;5058370;28;45744;-43
2023/09/21 02:31:47;;;;;;;;;4.75;4.75;;;;;19.78;74.91;99540.88;5058331;28;45375;-45
2023/09/21 02:34:14;;;;;;;;;3.75;3.75;;;;;19.79;74.65;99547.91;5057930;28;45371;-40
2023/09/21 02:36:39;;;;;;;;;6.60;6.00;;;;;19.79;76.11;99537.09;5057852;28;45429;-42
2023/09/21 02:39:10;;;;;;;;;5.00;2.00;;;;;19.71;75.23;99540.16;5058406;28;45270;-43
2023/09/21 02:41:35;;;;;;;;;3.25;3.00;;;;;19.68;76.41;99536.06;5058489;28;45249;-39
2023/09/21 02:44:01;;;;;;;;;3.25;3.25;;;;;19.66;76.90;99528.19;5057871;28;45567;-43
2023/09/21 02:46:28;;;;;;;;;6.75;4.00;;;;;19.55;77.70;99502.03;5057797;28;45342;-44
2023/09/21 02:48:53;;;;;;;;;6.00;3.75;;;;;19.68;75.90;99526.09;5057983;28;45387;-45
2023/09/21 02:51:19;;;;;;;;;2.50;2.50;;;;;19.67;75.74;99524.44;5058210;28;45274;-42
2023/09/21 02:53:46;;;;;;;;;2.75;2.50;;;;;19.63;78.05;99509.78;5057815;28;46294;-42
2023/09/21 02:56:12;;;;;;;;;4.60;3.20;;;;;19.64;77.25;99502.53;5057422;28;45411;-45
2023/09/21 02:58:40;;;;;;;;;2.50;2.50;;;;;19.64;77.10;99507.94;5058135;28;45370;-42
2023/09/21 03:01:05;;;;;;;;;2.75;2.50;;;;;19.64;78.47;99497.94;5058077;28;45392;-40
2023/09/21 03:03:31;;;;;;;;;4.00;2.75;;;;;19.63;75.78;99512.47;5056475;28;46210;-44
2023/09/21 03:05:56;;;;;;;;;3.00;2.00;;;;;19.60;76.96;99485.16;5057798;28;45509;-47
2023/09/21 03:08:22;;;;;;;;;3.00;2.00;;;;;19.59;78.47;99497.81;5055567;28;45408;-43
2023/09/21 03:10:53;;;;;;;;;1.50;1.50;;;;;19.57;77.57;99489.13;5057732;28;45328;-46
2023/09/21 03:13:19;;;;;;;;;3.25;3.25;;;;;19.58;78.39;99496.16;5057438;28;46526;-42
2023/09/21 03:15:48;;;;;;;;;3.00;2.00;;;;;19.56;78.52;99500.97;5057452;28;45772;-42
2023/09/21 03:18:14;;;;;;;;;3.00;1.20;;;;;19.53;78.77;99490.66;5057667;28;45316;-49
2023/09/21 03:20:40;;;;;;;;;2.25;1.75;;;;;19.59;78.43;99495.13;5057604;28;45484;-46
2023/09/21 03:23:09;;;;;;;;;5.75;3.00;;;;;19.63;77.40;99498.97;5057478;28;46886;-46
2023/09/21 03:25:42;;;;;;;;;3.00;3.00;;;;;19.64;77.05;99503.34;5056880;28;45429;-37
2023/09/21 03:28:14;;;;;;;;;4.25;2.00;;;;;19.66;77.97;99495.00;5057342;28;45395;-45
2023/09/21 03:30:41;;;;;;;;;2.00;2.00;;;;;19.67;78.72;99496.66;5057674;28;45320;-44
2023/09/21 03:33:07;;;;;;;;;2.00;2.00;;;;;19.68;78.95;99493.72;5056960;28;46285;-47
2023/09/21 03:35:33;;;;;;;;;0.80;0.80;;;;;19.70;77.61;99501.56;5056275;28;45383;-48
2023/09/21 03:37:59;;;;;;;;;2.00;2.00;;;;;19.71;77.05;99478.09;5057461;28;45383;-48
2023/09/21 03:40:30;;;;;;;;;4.00;2.25;;;;;19.66;77.65;99484.22;5057290;28;45303;-46
2023/09/21 03:42:56;;;;;;;;;2.00;2.00;;;;;19.68;79.40;99491.03;5056888;28;45509;-43
2023/09/21 03:45:25;;;;;;;;;3.00;3.00;;;;;19.66;78.31;99487.72;5057106;28;45948;-48
2023/09/21 03:47:54;;;;;;;;;3.25;1.75;;;;;19.64;79.01;99470.16;5039557;28;45451;-45
2023/09/21 03:50:21;;;;;;;;;1.50;1.50;;;;;19.71;79.12;99475.41;5055867;28;45590;-43
2023/09/21 03:52:50;;;;;;;;;2.40;2.00;;;;;19.71;78.68;99478.94;5056853;28;45536;-44
2023/09/21 03:55:16;;;;;;;;;2.00;2.00;;;;;19.74;76.58;99472.25;5056469;28;45239;-46
2023/09/21 03:57:43;;;;;;;;;2.50;2.50;;;;;19.73;77.59;99467.91;5056430;28;45381;-44
2023/09/21 04:00:26;;;;;;;;;1.00;1.00;;;;;19.71;77.79;99478.09;5057069;28;45493;-44
2023/09/21 04:02:59;;;;;;;;;1.25;1.25;;;;;19.74;79.03;99474.94;5055741;28;45384;-45
2023/09/21 04:05:31;;;;;;;;;2.40;1.40;;;;;19.76;78.27;99472.81;5056079;28;45536;-46
2023/09/21 04:07:59;;;;;;;;;2.00;2.00;;;;;19.77;78.58;99474.47;5056821;28;45314;-46
2023/09/21 04:10:24;;;;;;;;;3.50;1.75;;;;;19.71;77.84;99473.53;5056878;28;45808;-48
2023/09/21 04:12:54;;;;;;;;;1.00;1.00;;;;;19.71;78.82;99470.00;5056473;28;45927;-40
2023/09/21 04:15:20;;;;;;;;;2.60;2.00;;;;;19.76;77.46;99475.50;5056605;28;45296;-45
2023/09/21 04:17:45;;;;;;;;;4.00;2.00;;;;;19.72;78.84;99467.09;5056729;28;45297;-44
2023/09/21 04:20:12;;;;;;;;;2.00;2.00;;;;;19.74;77.87;99478.47;5055297;28;45401;-43
2023/09/21 04:22:39;;;;;;;;;2.25;2.25;;;;;19.61;78.46;99457.13;5056710;28;45360;-40
2023/09/21 04:25:07;;;;;;;;;4.40;2.80;;;;;19.69;78.04;99472.97;5056348;28;45333;-42
2023/09/21 04:27:34;;;;;;;;;6.00;2.80;;;;;19.55;78.23;99439.16;5056309;28;45281;-39
2023/09/21 04:29:59;;;;;;;;;3.00;2.00;;;;;19.64;78.87;99454.78;5056824;28;45419;-40
2023/09/21 04:32:25;;;;;;;;;3.50;2.00;;;;;19.67;79.05;99458.88;5056041;28;45336;-40
2023/09/21 04:34:50;;;;;;;;;4.00;4.00;;;;;19.66;78.32;99454.53;5037880;28;49960;-38
2023/09/21 04:37:15;;;;;;;;;4.75;2.00;;;;;19.66;78.21;99449.97;5056220;28;45261;-44
2023/09/21 04:39:40;;;;;;;;;4.75;2.00;;;;;19.66;78.49;99457.25;5056865;28;45433;-46
2023/09/21 04:42:06;;;;;;;;;4.00;3.00;;;;;19.61;79.37;99439.06;5054923;28;52251;-39
2023/09/21 04:44:32;;;;;;;;;4.00;2.00;;;;;19.62;78.97;99450.69;5056776;28;45379;-39
2023/09/21 04:46:58;;;;;;;;;2.00;2.00;;;;;19.60;79.43;99445.50;5039106;28;45429;-39
2023/09/21 04:49:24;;;;;;;;;6.75;3.25;;;;;19.56;79.10;99443.50;5056435;28;45526;-37
2023/09/21 04:51:49;;;;;;;;;4.00;3.00;;;;;19.56;79.56;99432.72;5055116;28;45433;-39
2023/09/21 04:54:15;;;;;;;;;4.00;4.00;;;;;19.54;78.49;99426.72;5056083;28;45479;-39
2023/09/21 04:56:40;;;;;;;;;2.00;2.00;;;;;19.53;79.43;99428.63;5056204;28;45370;-39
2023/09/21 04:59:05;;;;;;;;;3.75;3.75;;;;;19.51;79.60;99422.66;5056265;28;45490;-37
2023/09/21 05:01:31;;;;;;;;;4.50;2.50;;;;;19.50;79.07;99412.91;5055593;28;54637;-38
2023/09/21 05:03:56;;;;;;;;;2.75;2.75;;;;;19.51;79.18;99411.88;5055897;28;45272;-43
2023/09/21 05:06:23;;;;;;;;;6.75;4.00;;;;;19.51;79.94;99413.72;5055246;28;45343;-38
2023/09/21 05:08:48;;;;;;;;;4.25;2.50;;;;;19.48;79.87;99404.22;5056011;28;45521;-39
2023/09/21 05:11:14;;;;;;;;;5.00;3.00;;;;;19.42;80.51;99394.38;5055553;28;46128;-37
2023/09/21 05:13:40;;;;;;;;;3.00;3.00;;;;;19.43;80.40;99396.03;5055855;28;45294;-38
2023/09/21 05:16:05;;;;;;;;;5.25;4.00;;;;;19.38;80.63;99402.16;5037974;28;45300;-39
2023/09/21 05:18:31;;;;;;;;;5.25;5.00;;;;;19.33;80.70;99398.50;5055904;28;45545;-39
2023/09/21 05:20:56;;;;;;;;;6.25;3.50;;;;;19.29;80.95;99397.34;5055228;28;46635;-38
2023/09/21 05:23:21;;;;;;;;;4.75;3.00;;;;;19.29;81.00;99397.34;5055858;28;45523;-38
2023/09/21 05:25:47;;;;;;;;;3.00;3.00;;;;;19.25;81.63;99402.38;5055617;28;45367;-37
2023/09/21 05:28:12;;;;;;;;;4.75;4.50;;;;;19.23;80.87;99399.09;5055754;28;45425;-39
2023/09/21 05:30:38;;;;;;;;;4.50;3.75;;;;;19.23;81.55;99404.50;5056204;28;46068;-38
2023/09/21 05:33:05;;;;;;;;;5.50;4.75;;;;;19.22;81.41;99393.97;5059045;28;45533;-39
2023/09/21 05:35:31;;;;;;;;;5.50;4.50;;;;;19.17;81.18;99395.50;5059211;28;45442;-37
2023/09/21 05:37:56;;;;;;;;;8.00;4.00;;;;;19.14;81.32;99406.75;5058966;28;45644;-38
2023/09/21 05:40:21;;;;;;;;;6.50;5.00;;;;;19.14;80.65;99412.13;5058775;28;45197;-40
2023/09/21 05:42:47;;;;;;;;;4.00;4.00;;;;;19.12;81.23;99403.44;5040244;28;48103;-38
2023/09/21 05:45:12;;;;;;;;;6.00;5.00;;;;;19.15;81.24;99412.94;5058989;28;45336;-38
2023/09/21 05:47:38;;;;;;;;;5.00;4.50;;;;;19.13;80.52;99437.44;5059381;28;45204;-37
2023/09/21 05:50:05;;;;;;;;;7.25;4.25;;;;;19.09;80.83;99433.59;5058625;28;46174;-41
2023/09/21 05:52:32;;;;;;;;;5.00;4.50;;;;;19.08;80.70;99423.84;5058653;28;45544;-39
2023/09/21 05:54:57;;;;;;;;;5.00;3.25;;;;;19.07;81.49;99421.38;5058413;28;45406;-38
2023/09/21 05:57:23;;;;;;;;;4.75;3.00;;;;;19.09;80.95;99424.69;5058945;28;45542;-38
2023/09/21 05:59:50;;;;;;;;;3.75;3.75;;;;;19.05;79.42;99440.50;5058598;28;46156;-40
2023/09/21 06:02:15;;;;;;;;;4.50;4.00;;;;;19.06;80.69;99438.63;5057726;28;45400;-40
2023/09/21 06:04:41;;;;;;;;;3.00;3.00;;;;;19.06;80.81;99438.63;5058708;28;45476;-38
2023/09/21 06:07:07;;;;;;;;;4.50;2.75;;;;;19.05;81.65;99427.03;5058707;28;45474;-38
2023/09/21 06:09:33;;;;;;;;;7.00;4.25;;;;;19.04;80.43;99451.50;5058375;28;45410;-38
2023/09/21 06:11:59;;;;;;;;;4.00;4.00;;;;;18.97;81.70;99448.94;5058111;28;45363;-38
2023/09/21 06:14:25;;;;;;;;;3.50;3.00;;;;;18.97;82.61;99448.09;5058471;28;45373;-40
2023/09/21 06:16:51;;;;;;;;;6.00;4.00;;;;;18.93;82.54;99436.97;5058442;28;45320;-41
2023/09/21 06:19:18;;;;;;;;;5.25;3.75;;;;;18.92;81.60;99446.94;5040140;28;45573;-40
2023/09/21 06:21:45;;;;;;;;;3.20;3.20;;;;;18.83;81.39;99445.59;5058080;28;45408;-38
2023/09/21 06:24:11;;;;;;;;;3.00;2.00;;;;;18.93;81.74;99434.28;5057485;28;45448;-38
2023/09/21 06:26:37;;;;;;;;;4.50;3.00;;;;;18.93;82.25;99443.19;5058817;28;45303;-40
2023/09/21 06:29:03;;;;;;;;;5.00;3.50;;;;;18.93;82.05;99440.47;5057727;28;45462;-40
2023/09/21 06:31:28;;;;;;;;;4.50;4.50;;;;;18.98;81.88;99444.34;5057986;28;45352;-45
2023/09/21 06:33:57;;;;;;;;;6.50;6.00;;;;;18.98;81.68;99439.78;5058061;28;45391;-42
2023/09/21 06:36:28;;;;;;;;;6.00;5.50;;;;;19.03;82.29;99447.16;5057722;28;45555;-42
2023/09/21 06:38:55;;;;;;;;;4.00;3.00;;;;;19.03;81.51;99444.47;5057791;28;46545;-41
2023/09/21 06:41:21;;;;;;;;;5.50;3.75;;;;;19.01;81.42;99447.41;5057065;28;45465;-40
2023/09/21 06:43:46;;;;;;;;;6.75;5.00;;;;;19.04;81.62;99444.22;5057035;28;45476;-40
2023/09/21 06:46:12;;;;;;;;;4.00;3.00;;;;;19.10;81.62;99455.97;5058326;28;45450;-40
2023/09/21 06:48:38;;;;;;;;;5.75;3.50;;;;;19.14;81.59;99457.94;5057349;28;46087;-38
2023/09/21 06:51:04;;;;;;;;;2.75;2.75;;;;;19.14;81.55;99471.44;5057759;28;45871;-39
2023/09/21 06:53:31;;;;;;;;;4.00;4.00;;;;;19.13;79.73;99475.19;5057625;28;45352;-39
2023/09/21 06:55:58;;;;;;;;;3.75;2.75;;;;;19.13;81.56;99477.03;5058015;28;45475;-39
2023/09/21 06:58:24;;;;;;;;;4.00;4.00;;;;;19.13;81.79;99485.13;5057588;28;47031;-41
2023/09/21 07:00:49;;;;;;;;;6.00;4.25;;;;;19.09;81.06;99479.41;5057497;28;45445;-37
2023/09/21 07:03:15;;;;;;;;;4.00;4.00;;;;;19.07;82.00;99484.19;5057687;28;45304;-39
2023/09/21 07:05:43;;;;;;;;;4.00;3.75;;;;;19.07;82.51;99470.72;5057775;28;45555;-38
2023/09/21 07:08:10;;;;;;;;;2.50;2.50;;;;;19.06;81.15;99474.47;5057529;28;46599;-43
2023/09/21 07:10:35;;;;;;;;;4.00;4.00;;;;;18.65;81.78;99400.69;5039341;28;46066;-38
2023/09/21 07:13:00;;;;;;;;;4.75;1.50;;;;;19.01;83.64;99454.69;5057608;28;45410;-39
2023/09/21 07:15:28;;;;;;;;;4.00;3.00;;;;;18.92;83.06;99456.88;5037058;28;45677;-40
2023/09/21 07:17:55;;;;;;;;;6.75;4.00;;;;;18.89;82.95;99457.34;5044649;28;46159;-41
2023/09/21 07:20:23;;;;;;;;;4.60;4.60;;;;;18.88;84.55;99463.78;5033149;28;45503;-37
2023/09/21 07:22:49;;;;;;;;;3.20;2.00;;;;;18.85;83.77;99472.34;5037179;28;45354;-37
2023/09/21 07:25:15;;;;;;;;;7.00;3.00;;;;;18.78;84.61;99471.59;5036927;28;45419;-40
2023/09/21 07:27:42;;;;;;;;;5.75;5.00;;;;;18.74;84.89;99465.03;5036913;28;46553;-39
2023/09/21 07:30:08;;;;;;;;;4.00;4.00;;;;;18.69;86.73;99453.09;5036022;28;45412;-39
2023/09/21 07:32:34;;;;;;;;;5.25;3.25;;;;;18.62;84.33;99451.50;5036751;28;45527;-40
2023/09/21 07:34:59;;;;;;;;;3.75;3.75;;;;;18.60;87.33;99437.47;5041680;28;45182;-40
2023/09/21 07:37:24;;;;;;;;;3.00;3.00;;;;;18.56;86.70;99429.03;5056404;28;45528;-40
2023/09/21 07:39:50;;;;;;;;;5.00;3.00;;;;;18.59;86.91;99425.06;5056685;28;45308;-42
2023/09/21 07:42:16;;;;;;;;;5.00;3.75;;;;;18.58;86.92;99439.56;5056794;28;45448;-38
2023/09/21 07:44:44;;;;;;;;;2.50;2.00;;;;;18.58;85.89;99429.63;5056705;28;45356;-40
2023/09/21 07:47:10;;;;;;;;;4.25;3.25;;;;;18.57;85.23;99438.75;5056524;28;46243;-41
2023/09/21 07:49:35;;;;;;;;;4.00;1.75;;;;;18.56;86.08;99422.81;5057005;28;45335;-39
2023/09/21 07:52:01;;;;;;;;;4.75;4.50;;;;;18.57;86.73;99424.44;5056776;28;45408;-38
2023/09/21 07:54:29;;;;;;;;;7.00;4.00;;;;;18.58;87.00;99418.84;5056916;28;45339;-40
2023/09/21 07:56:54;;;;;;;;;6.50;5.00;;;;;18.61;86.49;99415.69;5056732;28;45325;-39
2023/09/21 07:59:20;;;;;;;;;6.25;5.00;;;;;18.62;86.66;99421.88;5056785;28;45187;-40
2023/09/21 08:01:47;;;;;;;;;6.50;5.00;;;;;18.65;86.38;99418.72;5056959;28;45725;-40
2023/09/21 08:04:12;;;;;;;;;6.50;6.00;;;;;18.67;86.38;99414.78;5040719;28;46048;-39
2023/09/21 08:06:38;;;;;;;;;9.00;4.75;;;;;18.68;86.42;99419.09;5054713;28;46314;-39
2023/09/21 08:09:03;;;;;;;;;9.75;5.00;;;;;18.72;86.97;99421.38;5052049;28;45459;-39
2023/09/21 08:11:28;;;;;;;;;8.00;6.00;;;;;18.74;87.03;99417.38;5052622;28;45843;-40
2023/09/21 08:13:54;;;;;;;;;10.00;5.25;;;;;18.75;86.81;99413.66;5053092;28;45465;-43
2023/09/21 08:16:19;;;;;;;;;7.50;6.75;;;;;18.80;86.46;99429.09;5052768;28;47172;-38
2023/09/21 08:18:45;;;;;;;;;8.00;7.00;;;;;18.79;85.88;99414.78;5053308;28;45598;-40
2023/09/21 08:21:10;;;;;;;;;5.25;5.00;;;;;18.77;86.19;99413.41;5052541;28;46665;-40
2023/09/21 08:23:36;;;;;;;;;7.25;6.00;;;;;18.60;86.37;99400.56;5053186;28;45269;-40
2023/09/21 08:26:03;;;;;;;;;5.00;4.50;;;;;18.73;85.43;99415.72;5052271;28;45987;-42
2023/09/21 08:28:29;;;;;;;;;3.75;3.75;;;;;18.70;85.99;99403.53;5052464;28;45500;-42
2023/09/21 08:30:55;;;;;;;;;5.00;3.75;;;;;18.70;86.17;99408.94;5052810;28;45431;-38
2023/09/21 08:33:22;;;;;;;;;3.75;2.25;;;;;18.71;85.45;99404.38;5052355;28;46259;-40
2023/09/21 08:35:48;;;;;;;;;5.00;4.75;;;;;18.68;86.00;99402.94;5033975;28;46936;-38
2023/09/21 08:38:13;;;;;;;;;7.00;4.75;;;;;18.64;86.07;99406.31;5052981;28;45597;-39
2023/09/21 08:40:43;;;;;;;;;3.75;3.75;;;;;18.67;86.88;99403.19;5052985;28;45476;-37
2023/09/21 08:43:19;;;;;;;;;9.00;6.00;;;;;18.67;85.49;99401.31;5052844;28;45490;-39
2023/09/21 08:45:46;;;;;;;;;4.50;4.50;;;;;18.66;86.12;99407.72;5052536;28;45903;-43
2023/09/21 08:48:15;;;;;;;;;7.50;7.50;;;;;18.65;86.70;99416.03;5033845;28;45576;-39
2023/09/21 08:50:41;;;;;;;;;6.00;5.75;;;;;18.64;86.24;99404.44;5051999;28;45384;-40
2023/09/21 08:53:12;;;;;;;;;6.00;6.00;;;;;18.66;86.00;99402.31;5053124;28;45344;-40
2023/09/21 08:55:38;;;;;;;;;6.25;5.50;;;;;18.66;84.57;99394.25;5051809;28;45383;-41
2023/09/21 08:58:06;;;;;;;;;6.75;4.00;;;;;18.67;85.26;99397.78;5052961;28;45372;-39
2023/09/21 09:00:34;;;;;;;;;5.50;3.00;;;;;18.57;86.38;99384.06;5053164;28;45556;-42
2023/09/21 09:03:00;;;;;;;;;4.75;4.75;;;;;18.66;85.62;99391.56;5052650;28;45503;-39
2023/09/21 09:05:26;;;;;;;;;5.75;5.75;;;;;18.68;85.45;99386.78;5053223;28;46886;-41
2023/09/21 09:07:51;;;;;;;;;6.00;4.00;;;;;18.72;84.72;99383.66;5053408;28;45680;-42
2023/09/21 09:10:18;;;;;;;;;5.25;4.75;;;;;18.73;84.85;99387.97;5056400;28;46551;-39
2023/09/21 09:12:43;;;;;;;;;5.00;3.00;;;;;18.71;85.86;99390.91;5056518;28;45547;-39
2023/09/21 09:15:09;;;;;;;;;4.00;4.00;;;;;18.71;85.91;99377.44;5055917;28;45493;-39
2023/09/21 09:17:36;;;;;;;;;5.00;5.00;;;;;18.73;85.23;99374.50;5056285;28;45367;-40
2023/09/21 09:20:05;;;;;;;;;5.50;4.75;;;;;18.70;84.82;99373.91;5056372;28;45443;-40
2023/09/21 09:22:33;;;;;;;;;7.75;4.00;;;;;18.73;85.38;99355.66;5056359;28;45395;-41
2023/09/21 09:25:04;;;;;;;;;6.00;2.75;;;;;18.69;85.52;99348.03;5054726;28;46330;-40
2023/09/21 09:27:30;;;;;;;;;6.00;4.25;;;;;18.71;84.94;99345.13;5055944;28;46036;-40
2023/09/21 09:29:57;;;;;;;;;6.00;3.75;;;;;18.72;85.22;99348.63;5055796;28;45578;-41
2023/09/21 09:32:23;;;;;;;;;4.00;4.00;;;;;18.75;85.20;99330.13;5056001;28;45533;-43
2023/09/21 09:34:49;;;;;;;;;6.00;4.00;;;;;18.80;85.36;99334.81;5055161;28;46126;-39
2023/09/21 09:37:16;;;;;;;;;3.20;3.20;;;;;18.82;85.77;99336.19;5055929;28;45915;-40
2023/09/21 09:39:43;;;;;;;;;7.25;4.75;;;;;18.77;85.48;99329.88;5055639;28;45477;-40
2023/09/21 09:42:10;;;;;;;;;5.25;5.00;;;;;18.80;84.70;99345.59;5055579;28;45452;-42
2023/09/21 09:44:42;;;;;;;;;6.00;4.00;;;;;18.82;84.10;99348.84;5055685;28;46996;-39
2023/09/21 09:47:10;;;;;;;;;4.80;2.80;;;;;18.83;84.74;99355.88;5055964;28;45405;-42
2023/09/21 09:49:38;;;;;;;;;5.00;4.50;;;;;18.83;86.28;99351.31;5055699;28;45407;-40
2023/09/21 09:52:06;;;;;;;;;5.00;5.00;;;;;18.81;86.71;99352.59;5036919;28;45541;-41
2023/09/21 09:54:32;;;;;;;;;6.50;4.25;;;;;18.86;86.28;99344.63;5054359;28;45502;-40
2023/09/21 09:57:01;;;;;;;;;3.00;3.00;;;;;18.85;84.92;99337.63;5055160;28;45791;-40
2023/09/21 09:59:28;;;;;;;;;6.50;4.25;;;;;18.75;85.25;99351.69;5053150;28;45396;-41
2023/09/21 10:01:54;;;;;;;;;2.75;2.00;;;;;18.86;85.08;99347.34;5055288;28;46414;-39
2023/09/21 10:04:20;;;;;;;;;3.00;3.00;;;;;18.83;85.57;99351.31;5055504;28;46150;-42
2023/09/21 10:06:47;;;;;;;;;4.20;3.20;;;;;18.86;84.81;99358.09;5055176;28;45647;-38
2023/09/21 10:09:14;;;;;;;;;4.00;3.00;;;;;18.88;85.97;99359.53;5055160;28;45375;-38
2023/09/21 10:11:50;;;;;;;;;3.00;3.00;;;;;18.95;85.99;99352.13;5055487;28;45359;-43
2023/09/21 10:14:17;;;;;;;;;0.50;0.50;;;;;18.99;85.04;99344.38;5054579;28;46806;-42
2023/09/21 10:16:53;;;;;;;;;2.20;2.20;;;;;19.06;84.07;99342.41;5054931;28;46490;-39
2023/09/21 10:19:26;;;;;;;;;4.00;3.00;;;;;19.13;83.38;99351.19;5055080;28;45442;-40
2023/09/21 10:22:03;;;;;;;;;3.50;3.50;;;;;19.15;83.03;99340.16;5054915;28;45558;-37
2023/09/21 10:24:30;;;;;;;;;2.75;2.00;;;;;19.23;82.91;99338.97;5053775;28;46294;-40
2023/09/21 10:27:03;;;;;;;;;4.00;3.00;;;;;19.31;82.02;99338.63;5054873;28;45352;-40
2023/09/21 10:29:33;;;;;;;;;2.20;2.00;;;;;19.39;81.61;99349.03;5055087;28;45492;-41
2023/09/21 10:32:06;;;;;;;;;1.00;1.00;;;;;19.44;82.51;99346.44;5054927;28;45853;-42
2023/09/21 10:34:31;;;;;;;;;3.25;2.00;;;;;19.48;82.64;99357.56;5036096;28;46376;-43
2023/09/21 10:37:00;;;;;;;;;2.00;2.00;;;;;19.48;82.51;99362.97;5054472;28;45355;-42
2023/09/21 10:39:29;;;;;;;;;3.00;2.00;;;;;19.43;81.56;99374.47;5054455;28;45557;-39
2023/09/21 10:42:15;;;;;;;;;1.00;1.00;;;;;19.33;81.32;99374.25;5047482;28;45556;-38
2023/09/21 10:44:53;;;;;;;;;1.75;1.50;;;;;19.27;81.21;99376.00;4976423;28;46240;-38
2023/09/21 10:47:36;;;;;;;;;3.20;1.80;;;;;19.22;80.86;99380.47;4975190;28;45353;-40
2023/09/21 10:50:10;;;;;;;;;1.20;1.00;;;;;19.14;81.17;99371.69;4972770;28;45467;-38
2023/09/21 10:52:39;;;;;;;;;3.50;1.00;;;;;19.25;80.64;99393.47;4988952;28;46414;-41
2023/09/21 10:55:05;;;;;;;;;2.25;2.25;;;;;19.19;80.41;99395.25;4991989;28;47211;-38
2023/09/21 10:57:31;;;;;;;;;4.40;2.00;;;;;19.20;79.71;99400.38;4992125;28;45460;-41
2023/09/21 11:00:01;;;;;;;;;1.00;1.00;;;;;19.19;78.49;99406.84;4991861;28;45877;-41
2023/09/21 11:02:39;;;;;;;;;3.00;1.00;;;;;19.17;77.51;99421.59;4971193;28;45485;-38
2023/09/21 11:05:09;;;;;;;;;1.50;1.00;;;;;19.10;75.86;99416.34;4972823;28;46172;-40
2023/09/21 11:07:36;;;;;;;;;2.00;1.00;;;;;18.96;75.91;99390.66;4973475;28;45494;-41
2023/09/21 11:10:05;;;;;;;;;0.00;0.00;;;;;19.06;74.86;99403.56;4972588;28;45522;-39
2023/09/21 11:12:30;;;;;;;;;1.00;1.00;;;;;19.04;75.04;99390.31;4979163;28;45459;-37
2023/09/21 11:14:56;;;;;;;;;2.00;0.50;;;;;19.01;74.59;99371.13;4991514;28;45613;-41
2023/09/21 11:17:22;;;;;;;;;0.50;0.50;;;;;18.97;75.42;99354.59;4990913;28;45633;-40
2023/09/21 11:19:47;;;;;;;;;1.25;0.75;;;;;18.98;74.88;99350.84;4991795;28;46024;-38
2023/09/21 11:22:13;;;;;;;;;1.50;1.50;;;;;18.94;73.48;99345.09;5026226;28;45466;-39
2023/09/21 11:24:39;;;;;;;;;1.25;0.50;;;;;18.88;72.16;99324.50;5053278;28;45481;-39
2023/09/21 11:27:12;;;;;;;;;0.00;0.00;;;;;18.87;72.76;99336.31;5053681;28;45367;-41
2023/09/21 11:29:42;;;;;;;;;0.00;0.00;;;;;18.88;71.62;99342.53;5052543;28;45411;-40
2023/09/21 11:32:09;;;;;;;;;2.50;2.50;;;;;18.72;72.24;99332.47;5038532;28;45509;-43
2023/09/21 11:34:36;;;;;;;;;2.75;1.25;;;;;18.85;71.67;99372.66;5041137;28;45486;-39